sensor_id;sensor_type;location;lat;lon;timestamp;temperature;humidity
7360;DHT22;3720;48.274;7.796;2022-12-24T00:01:57;12.90;99.90
7360;DHT22;3720;48.274;7.796;2022-12-24T00:04:29;12.70;99.90
7360;DHT22;3720;48.274;7.796;2022-12-24T00:07:01;12.70;99.90
7360;DHT22;3720;48.274;7.796;2022-12-24T00:09:33;12.70;99.90
7360;DHT22;3720;48.274;7.796;2022-12-24T00:12:05;12.60;99.90
7360;DHT22;3720;48.274;7.796;2022-12-24T00:14:37;12.50;99.90
7360;DHT22;3720;48.274;7.796;2022-12-24T00:17:10;12.50;99.90
7360;DHT22;3720;48.274;7.796;2022-12-24T00:19:42;12.50;99.90
7360;DHT22;3720;48.274;7.796;2022-12-24T00:22:14;12.60;99.90
7360;DHT22;3720;48.274;7.796;2022-12-24T00:24:46;12.70;99.90
7360;DHT22;3720;48.274;7.796;2022-12-24T00:27:18;12.70;99.90
7360;DHT22;3720;48.274;7.796;2022-12-24T00:29:50;12.70;99.90
7360;DHT22;3720;48.274;7.796;2022-12-24T00:32:23;12.60;99.90
7360;DHT22;3720;48.274;7.796;2022-12-24T00:34:55;12.60;99.90
7360;DHT22;3720;48.274;7.796;2022-12-24T00:37:27;12.50;99.90
7360;DHT22;3720;48.274;7.796;2022-12-24T00:39:59;12.40;99.90
7360;DHT22;3720;48.274;7.796;2022-12-24T00:42:31;12.50;99.90
7360;DHT22;3720;48.274;7.796;2022-12-24T00:45:03;12.60;99.90
7360;DHT22;3720;48.274;7.796;2022-12-24T00:47:37;12.80;99.90
7360;DHT22;3720;48.274;7.796;2022-12-24T00:50:09;12.90;99.90
7360;DHT22;3720;48.274;7.796;2022-12-24T00:52:41;13.00;99.90
7360;DHT22;3720;48.274;7.796;2022-12-24T00:55:12;13.00;99.90
7360;DHT22;3720;48.274;7.796;2022-12-24T00:57:44;13.00;99.90
7360;DHT22;3720;48.274;7.796;2022-12-24T01:00:17;12.90;99.90
7360;DHT22;3720;48.274;7.796;2022-12-24T01:02:50;12.90;99.90
7360;DHT22;3720;48.274;7.796;2022-12-24T01:05:25;12.90;99.90
7360;DHT22;3720;48.274;7.796;2022-12-24T01:07:57;12.90;99.90
7360;DHT22;3720;48.274;7.796;2022-12-24T01:10:32;12.90;99.90
7360;DHT22;3720;48.274;7.796;2022-12-24T01:13:07;12.90;99.90
7360;DHT22;3720;48.274;7.796;2022-12-24T01:15:39;12.90;99.90
7360;DHT22;3720;48.274;7.796;2022-12-24T01:18:12;12.80;99.90
7360;DHT22;3720;48.274;7.796;2022-12-24T01:20:54;12.80;99.90
7360;DHT22;3720;48.274;7.796;2022-12-24T01:23:27;12.80;99.90
7360;DHT22;3720;48.274;7.796;2022-12-24T01:25:59;12.90;99.90
7360;DHT22;3720;48.274;7.796;2022-12-24T01:28:31;12.90;99.90
7360;DHT22;3720;48.274;7.796;2022-12-24T01:31:10;12.90;99.90
7360;DHT22;3720;48.274;7.796;2022-12-24T01:33:45;12.90;99.90
7360;DHT22;3720;48.274;7.796;2022-12-24T01:36:17;13.00;99.90
7360;DHT22;3720;48.274;7.796;2022-12-24T01:38:49;13.00;99.90
7360;DHT22;3720;48.274;7.796;2022-12-24T01:41:22;12.90;99.90
7360;DHT22;3720;48.274;7.796;2022-12-24T01:44:30;13.00;99.90
7360;DHT22;3720;48.274;7.796;2022-12-24T01:47:07;13.00;99.90
7360;DHT22;3720;48.274;7.796;2022-12-24T01:49:44;13.00;99.90
7360;DHT22;3720;48.274;7.796;2022-12-24T01:52:19;13.00;99.90
7360;DHT22;3720;48.274;7.796;2022-12-24T01:54:55;13.00;99.90
7360;DHT22;3720;48.274;7.796;2022-12-24T01:57:30;13.00;99.90
7360;DHT22;3720;48.274;7.796;2022-12-24T02:00:06;13.00;99.90
7360;DHT22;3720;48.274;7.796;2022-12-24T02:02:42;12.90;99.90
7360;DHT22;3720;48.274;7.796;2022-12-24T02:05:20;13.00;99.90
7360;DHT22;3720;48.274;7.796;2022-12-24T02:07:52;13.00;99.90
7360;DHT22;3720;48.274;7.796;2022-12-24T02:10:25;13.10;99.90
7360;DHT22;3720;48.274;7.796;2022-12-24T02:12:58;13.10;99.90
7360;DHT22;3720;48.274;7.796;2022-12-24T02:15:38;13.00;99.90
7360;DHT22;3720;48.274;7.796;2022-12-24T02:18:20;13.00;99.90
7360;DHT22;3720;48.274;7.796;2022-12-24T02:24:19;13.00;99.90
7360;DHT22;3720;48.274;7.796;2022-12-24T02:27:20;12.90;99.90
7360;DHT22;3720;48.274;7.796;2022-12-24T02:30:03;12.90;99.90
7360;DHT22;3720;48.274;7.796;2022-12-24T02:35:36;12.80;99.90
7360;DHT22;3720;48.274;7.796;2022-12-24T02:38:14;12.80;99.90
7360;DHT22;3720;48.274;7.796;2022-12-24T02:40:50;12.80;99.90
7360;DHT22;3720;48.274;7.796;2022-12-24T02:43:27;12.80;99.90
7360;DHT22;3720;48.274;7.796;2022-12-24T02:46:05;12.80;99.90
7360;DHT22;3720;48.274;7.796;2022-12-24T02:48:41;12.80;99.90
7360;DHT22;3720;48.274;7.796;2022-12-24T02:51:14;12.80;99.90
7360;DHT22;3720;48.274;7.796;2022-12-24T02:53:46;12.80;99.90
7360;DHT22;3720;48.274;7.796;2022-12-24T02:56:39;12.80;99.90
7360;DHT22;3720;48.274;7.796;2022-12-24T02:59:36;12.80;99.90
7360;DHT22;3720;48.274;7.796;2022-12-24T03:02:20;12.70;99.90
7360;DHT22;3720;48.274;7.796;2022-12-24T03:05:01;12.60;99.90
7360;DHT22;3720;48.274;7.796;2022-12-24T03:07:43;12.60;99.90
7360;DHT22;3720;48.274;7.796;2022-12-24T03:10:20;12.50;99.90
7360;DHT22;3720;48.274;7.796;2022-12-24T03:13:02;12.50;99.90
7360;DHT22;3720;48.274;7.796;2022-12-24T03:15:36;12.30;99.90
7360;DHT22;3720;48.274;7.796;2022-12-24T03:18:12;12.40;99.90
7360;DHT22;3720;48.274;7.796;2022-12-24T03:20:47;12.50;99.90
7360;DHT22;3720;48.274;7.796;2022-12-24T03:23:21;12.60;99.90
7360;DHT22;3720;48.274;7.796;2022-12-24T03:25:53;12.60;99.90
7360;DHT22;3720;48.274;7.796;2022-12-24T03:28:27;12.50;99.90
7360;DHT22;3720;48.274;7.796;2022-12-24T03:31:00;12.50;99.90
7360;DHT22;3720;48.274;7.796;2022-12-24T03:33:35;12.60;99.90
7360;DHT22;3720;48.274;7.796;2022-12-24T03:36:08;12.50;99.90
7360;DHT22;3720;48.274;7.796;2022-12-24T03:38:41;12.40;99.90
7360;DHT22;3720;48.274;7.796;2022-12-24T03:41:13;12.30;99.90
7360;DHT22;3720;48.274;7.796;2022-12-24T03:43:44;12.30;99.90
7360;DHT22;3720;48.274;7.796;2022-12-24T03:46:17;12.20;99.90
7360;DHT22;3720;48.274;7.796;2022-12-24T03:48:50;12.10;99.90
7360;DHT22;3720;48.274;7.796;2022-12-24T03:51:23;12.20;99.90
7360;DHT22;3720;48.274;7.796;2022-12-24T03:53:56;12.20;99.90
7360;DHT22;3720;48.274;7.796;2022-12-24T03:56:28;12.10;99.90
7360;DHT22;3720;48.274;7.796;2022-12-24T03:59:00;12.10;99.90
7360;DHT22;3720;48.274;7.796;2022-12-24T04:01:32;12.00;99.90
7360;DHT22;3720;48.274;7.796;2022-12-24T04:04:05;12.10;99.90
7360;DHT22;3720;48.274;7.796;2022-12-24T04:06:37;12.10;99.90
7360;DHT22;3720;48.274;7.796;2022-12-24T04:09:09;12.00;99.90
7360;DHT22;3720;48.274;7.796;2022-12-24T04:11:41;12.00;99.90
7360;DHT22;3720;48.274;7.796;2022-12-24T04:14:13;12.00;99.90
7360;DHT22;3720;48.274;7.796;2022-12-24T04:16:44;12.00;99.90
7360;DHT22;3720;48.274;7.796;2022-12-24T04:19:18;12.00;99.90
7360;DHT22;3720;48.274;7.796;2022-12-24T04:21:50;11.90;99.90
7360;DHT22;3720;48.274;7.796;2022-12-24T04:24:22;12.00;99.90
7360;DHT22;3720;48.274;7.796;2022-12-24T04:26:54;12.00;99.90
7360;DHT22;3720;48.274;7.796;2022-12-24T04:29:26;12.10;99.90
7360;DHT22;3720;48.274;7.796;2022-12-24T04:31:58;12.10;99.90
7360;DHT22;3720;48.274;7.796;2022-12-24T04:34:31;12.20;99.90
7360;DHT22;3720;48.274;7.796;2022-12-24T04:37:04;12.20;99.90
7360;DHT22;3720;48.274;7.796;2022-12-24T04:39:35;12.10;99.90
7360;DHT22;3720;48.274;7.796;2022-12-24T04:42:08;12.20;99.90
7360;DHT22;3720;48.274;7.796;2022-12-24T04:44:40;12.30;99.90
7360;DHT22;3720;48.274;7.796;2022-12-24T04:47:12;12.20;99.90
7360;DHT22;3720;48.274;7.796;2022-12-24T04:49:45;12.30;99.90
7360;DHT22;3720;48.274;7.796;2022-12-24T04:52:17;12.30;99.90
7360;DHT22;3720;48.274;7.796;2022-12-24T04:54:49;12.30;99.90
7360;DHT22;3720;48.274;7.796;2022-12-24T04:57:21;12.30;99.90
7360;DHT22;3720;48.274;7.796;2022-12-24T04:59:52;12.30;99.90
7360;DHT22;3720;48.274;7.796;2022-12-24T05:02:24;12.20;99.90
7360;DHT22;3720;48.274;7.796;2022-12-24T05:04:57;12.20;99.90
7360;DHT22;3720;48.274;7.796;2022-12-24T05:07:30;12.10;99.90
7360;DHT22;3720;48.274;7.796;2022-12-24T05:10:02;12.10;99.90
7360;DHT22;3720;48.274;7.796;2022-12-24T05:12:33;12.10;99.90
7360;DHT22;3720;48.274;7.796;2022-12-24T05:15:06;12.10;99.90
7360;DHT22;3720;48.274;7.796;2022-12-24T05:17:38;12.10;99.90
7360;DHT22;3720;48.274;7.796;2022-12-24T05:20:12;12.10;99.90
7360;DHT22;3720;48.274;7.796;2022-12-24T05:22:44;12.10;99.90
7360;DHT22;3720;48.274;7.796;2022-12-24T05:25:36;12.10;99.90
7360;DHT22;3720;48.274;7.796;2022-12-24T05:28:26;12.10;99.90
7360;DHT22;3720;48.274;7.796;2022-12-24T05:30:58;12.00;99.90
7360;DHT22;3720;48.274;7.796;2022-12-24T05:33:30;12.00;99.90
7360;DHT22;3720;48.274;7.796;2022-12-24T05:36:03;12.10;99.90
7360;DHT22;3720;48.274;7.796;2022-12-24T05:38:35;12.30;99.90
7360;DHT22;3720;48.274;7.796;2022-12-24T05:41:08;12.40;99.90
7360;DHT22;3720;48.274;7.796;2022-12-24T05:43:40;12.40;99.90
7360;DHT22;3720;48.274;7.796;2022-12-24T05:46:14;12.40;99.90
7360;DHT22;3720;48.274;7.796;2022-12-24T05:48:46;12.30;99.90
7360;DHT22;3720;48.274;7.796;2022-12-24T05:51:21;12.30;99.90
7360;DHT22;3720;48.274;7.796;2022-12-24T05:53:53;12.20;99.90
7360;DHT22;3720;48.274;7.796;2022-12-24T05:56:25;12.20;99.90
7360;DHT22;3720;48.274;7.796;2022-12-24T05:58:57;12.20;99.90
7360;DHT22;3720;48.274;7.796;2022-12-24T06:01:29;12.20;99.90
7360;DHT22;3720;48.274;7.796;2022-12-24T06:04:01;12.30;99.90
7360;DHT22;3720;48.274;7.796;2022-12-24T06:06:35;12.30;99.90
7360;DHT22;3720;48.274;7.796;2022-12-24T06:09:07;12.30;99.90
7360;DHT22;3720;48.274;7.796;2022-12-24T06:11:39;12.20;99.90
7360;DHT22;3720;48.274;7.796;2022-12-24T06:14:10;12.00;99.90
7360;DHT22;3720;48.274;7.796;2022-12-24T06:16:42;12.00;99.90
7360;DHT22;3720;48.274;7.796;2022-12-24T06:19:14;12.00;99.90
7360;DHT22;3720;48.274;7.796;2022-12-24T06:21:48;11.90;99.90
7360;DHT22;3720;48.274;7.796;2022-12-24T06:24:19;11.90;99.90
7360;DHT22;3720;48.274;7.796;2022-12-24T06:26:51;11.90;99.90
7360;DHT22;3720;48.274;7.796;2022-12-24T06:29:24;11.80;99.90
7360;DHT22;3720;48.274;7.796;2022-12-24T06:31:56;11.80;99.90
7360;DHT22;3720;48.274;7.796;2022-12-24T06:34:28;11.80;99.90
7360;DHT22;3720;48.274;7.796;2022-12-24T06:37:01;11.80;99.90
7360;DHT22;3720;48.274;7.796;2022-12-24T06:39:33;11.70;99.90
7360;DHT22;3720;48.274;7.796;2022-12-24T06:42:05;11.70;99.90
7360;DHT22;3720;48.274;7.796;2022-12-24T06:44:37;11.70;99.90
7360;DHT22;3720;48.274;7.796;2022-12-24T06:47:09;11.70;99.90
7360;DHT22;3720;48.274;7.796;2022-12-24T06:49:40;11.80;99.90
7360;DHT22;3720;48.274;7.796;2022-12-24T06:52:14;11.80;99.90
7360;DHT22;3720;48.274;7.796;2022-12-24T06:54:46;11.80;99.90
7360;DHT22;3720;48.274;7.796;2022-12-24T06:57:18;11.70;99.90
7360;DHT22;3720;48.274;7.796;2022-12-24T06:59:50;11.50;99.90
7360;DHT22;3720;48.274;7.796;2022-12-24T07:02:22;11.30;99.90
7360;DHT22;3720;48.274;7.796;2022-12-24T07:04:54;11.30;99.90
7360;DHT22;3720;48.274;7.796;2022-12-24T07:07:27;11.20;99.90
7360;DHT22;3720;48.274;7.796;2022-12-24T07:09:59;11.20;99.90
7360;DHT22;3720;48.274;7.796;2022-12-24T07:12:31;11.20;99.90
7360;DHT22;3720;48.274;7.796;2022-12-24T07:15:04;11.30;99.90
7360;DHT22;3720;48.274;7.796;2022-12-24T07:17:36;11.30;99.90
7360;DHT22;3720;48.274;7.796;2022-12-24T07:20:11;11.30;99.90
7360;DHT22;3720;48.274;7.796;2022-12-24T07:22:45;11.30;99.90
7360;DHT22;3720;48.274;7.796;2022-12-24T07:25:17;11.30;99.90
7360;DHT22;3720;48.274;7.796;2022-12-24T07:27:49;11.30;99.90
7360;DHT22;3720;48.274;7.796;2022-12-24T07:30:21;11.20;99.90
7360;DHT22;3720;48.274;7.796;2022-12-24T07:32:52;11.30;99.90
7360;DHT22;3720;48.274;7.796;2022-12-24T07:35:24;11.20;99.90
7360;DHT22;3720;48.274;7.796;2022-12-24T07:37:58;11.20;99.90
7360;DHT22;3720;48.274;7.796;2022-12-24T07:40:30;11.30;99.90
7360;DHT22;3720;48.274;7.796;2022-12-24T07:43:04;11.30;99.90
7360;DHT22;3720;48.274;7.796;2022-12-24T07:45:36;11.40;99.90
7360;DHT22;3720;48.274;7.796;2022-12-24T07:48:07;11.40;99.90
7360;DHT22;3720;48.274;7.796;2022-12-24T07:50:39;11.50;99.90
7360;DHT22;3720;48.274;7.796;2022-12-24T07:53:13;11.50;99.90
7360;DHT22;3720;48.274;7.796;2022-12-24T07:55:45;11.50;99.90
7360;DHT22;3720;48.274;7.796;2022-12-24T07:58:17;11.60;99.90
7360;DHT22;3720;48.274;7.796;2022-12-24T08:00:53;11.60;99.90
7360;DHT22;3720;48.274;7.796;2022-12-24T08:03:26;11.60;99.90
7360;DHT22;3720;48.274;7.796;2022-12-24T08:05:58;11.60;99.90
7360;DHT22;3720;48.274;7.796;2022-12-24T08:08:31;11.60;99.90
7360;DHT22;3720;48.274;7.796;2022-12-24T08:11:05;11.70;99.90
7360;DHT22;3720;48.274;7.796;2022-12-24T08:13:37;11.50;99.90
7360;DHT22;3720;48.274;7.796;2022-12-24T08:16:10;11.60;99.90
7360;DHT22;3720;48.274;7.796;2022-12-24T08:18:42;11.50;99.90
7360;DHT22;3720;48.274;7.796;2022-12-24T08:21:14;11.50;99.90
7360;DHT22;3720;48.274;7.796;2022-12-24T08:23:47;11.50;99.90
7360;DHT22;3720;48.274;7.796;2022-12-24T08:26:19;11.50;99.90
7360;DHT22;3720;48.274;7.796;2022-12-24T08:28:51;11.50;99.90
7360;DHT22;3720;48.274;7.796;2022-12-24T08:31:23;11.50;99.90
7360;DHT22;3720;48.274;7.796;2022-12-24T08:33:55;11.50;99.90
7360;DHT22;3720;48.274;7.796;2022-12-24T08:36:27;11.50;99.90
7360;DHT22;3720;48.274;7.796;2022-12-24T08:39:00;11.50;99.90
7360;DHT22;3720;48.274;7.796;2022-12-24T08:41:33;11.40;99.90
7360;DHT22;3720;48.274;7.796;2022-12-24T08:44:05;11.50;99.90
7360;DHT22;3720;48.274;7.796;2022-12-24T08:46:37;11.60;99.90
7360;DHT22;3720;48.274;7.796;2022-12-24T08:49:09;11.70;99.90
7360;DHT22;3720;48.274;7.796;2022-12-24T08:51:40;11.80;99.90
7360;DHT22;3720;48.274;7.796;2022-12-24T08:54:14;11.80;99.90
7360;DHT22;3720;48.274;7.796;2022-12-24T08:56:45;11.90;99.90
7360;DHT22;3720;48.274;7.796;2022-12-24T08:59:17;12.00;99.90
7360;DHT22;3720;48.274;7.796;2022-12-24T09:01:49;12.10;99.90
7360;DHT22;3720;48.274;7.796;2022-12-24T09:04:22;12.30;99.90
7360;DHT22;3720;48.274;7.796;2022-12-24T09:06:54;12.50;99.90
7360;DHT22;3720;48.274;7.796;2022-12-24T09:09:27;12.70;99.90
7360;DHT22;3720;48.274;7.796;2022-12-24T09:11:59;12.80;99.90
7360;DHT22;3720;48.274;7.796;2022-12-24T09:14:31;12.80;99.90
7360;DHT22;3720;48.274;7.796;2022-12-24T09:17:03;12.90;99.90
7360;DHT22;3720;48.274;7.796;2022-12-24T09:19:35;13.00;99.90
7360;DHT22;3720;48.274;7.796;2022-12-24T09:22:07;12.90;99.90
7360;DHT22;3720;48.274;7.796;2022-12-24T09:24:40;12.90;99.90
7360;DHT22;3720;48.274;7.796;2022-12-24T09:27:12;12.90;99.90
7360;DHT22;3720;48.274;7.796;2022-12-24T09:29:44;12.80;99.90
7360;DHT22;3720;48.274;7.796;2022-12-24T09:32:16;12.90;99.90
7360;DHT22;3720;48.274;7.796;2022-12-24T09:34:48;12.70;99.90
7360;DHT22;3720;48.274;7.796;2022-12-24T09:37:20;12.70;99.90
7360;DHT22;3720;48.274;7.796;2022-12-24T09:39:53;12.70;99.90
7360;DHT22;3720;48.274;7.796;2022-12-24T09:42:36;12.70;99.90
7360;DHT22;3720;48.274;7.796;2022-12-24T09:45:15;12.90;99.90
7360;DHT22;3720;48.274;7.796;2022-12-24T09:47:52;12.80;99.90
7360;DHT22;3720;48.274;7.796;2022-12-24T09:50:30;12.80;99.90
7360;DHT22;3720;48.274;7.796;2022-12-24T09:53:06;12.80;99.90
7360;DHT22;3720;48.274;7.796;2022-12-24T09:55:47;12.90;99.90
7360;DHT22;3720;48.274;7.796;2022-12-24T09:58:24;12.90;99.90
7360;DHT22;3720;48.274;7.796;2022-12-24T10:00:58;13.00;99.90
7360;DHT22;3720;48.274;7.796;2022-12-24T10:03:30;13.20;99.90
7360;DHT22;3720;48.274;7.796;2022-12-24T10:06:06;13.10;99.90
7360;DHT22;3720;48.274;7.796;2022-12-24T10:08:50;13.10;99.90
7360;DHT22;3720;48.274;7.796;2022-12-24T10:11:30;13.10;99.90
7360;DHT22;3720;48.274;7.796;2022-12-24T10:14:18;13.10;99.90
7360;DHT22;3720;48.274;7.796;2022-12-24T10:17:00;13.10;99.90
7360;DHT22;3720;48.274;7.796;2022-12-24T10:19:40;13.10;99.90
7360;DHT22;3720;48.274;7.796;2022-12-24T10:22:22;13.10;99.90
7360;DHT22;3720;48.274;7.796;2022-12-24T10:25:01;13.20;99.90
7360;DHT22;3720;48.274;7.796;2022-12-24T10:27:38;13.10;99.90
7360;DHT22;3720;48.274;7.796;2022-12-24T10:30:14;13.10;99.90
7360;DHT22;3720;48.274;7.796;2022-12-24T10:32:48;13.20;99.90
7360;DHT22;3720;48.274;7.796;2022-12-24T10:35:23;13.10;99.90
7360;DHT22;3720;48.274;7.796;2022-12-24T10:37:55;13.20;99.90
7360;DHT22;3720;48.274;7.796;2022-12-24T10:40:31;13.30;99.90
7360;DHT22;3720;48.274;7.796;2022-12-24T10:43:13;13.30;99.90
7360;DHT22;3720;48.274;7.796;2022-12-24T10:45:49;13.30;99.90
7360;DHT22;3720;48.274;7.796;2022-12-24T10:48:26;13.50;99.90
7360;DHT22;3720;48.274;7.796;2022-12-24T10:51:02;13.50;99.90
7360;DHT22;3720;48.274;7.796;2022-12-24T10:53:42;13.50;99.90
7360;DHT22;3720;48.274;7.796;2022-12-24T10:56:16;13.60;99.90
7360;DHT22;3720;48.274;7.796;2022-12-24T10:58:53;13.50;99.90
7360;DHT22;3720;48.274;7.796;2022-12-24T11:01:43;13.60;99.90
7360;DHT22;3720;48.274;7.796;2022-12-24T11:04:17;13.60;99.90
7360;DHT22;3720;48.274;7.796;2022-12-24T11:06:55;13.60;99.90
7360;DHT22;3720;48.274;7.796;2022-12-24T11:09:29;13.70;99.90
7360;DHT22;3720;48.274;7.796;2022-12-24T11:12:03;13.70;99.90
7360;DHT22;3720;48.274;7.796;2022-12-24T11:14:38;13.80;99.90
7360;DHT22;3720;48.274;7.796;2022-12-24T11:17:18;13.70;99.90
7360;DHT22;3720;48.274;7.796;2022-12-24T11:19:51;13.80;99.90
7360;DHT22;3720;48.274;7.796;2022-12-24T11:22:25;13.80;99.90
7360;DHT22;3720;48.274;7.796;2022-12-24T11:25:02;13.80;99.90
7360;DHT22;3720;48.274;7.796;2022-12-24T11:27:41;13.70;99.90
7360;DHT22;3720;48.274;7.796;2022-12-24T11:30:28;13.80;99.90
7360;DHT22;3720;48.274;7.796;2022-12-24T11:33:16;13.70;99.90
7360;DHT22;3720;48.274;7.796;2022-12-24T11:35:53;13.80;99.90
7360;DHT22;3720;48.274;7.796;2022-12-24T11:38:27;13.70;99.90
7360;DHT22;3720;48.274;7.796;2022-12-24T11:41:02;13.70;99.90
7360;DHT22;3720;48.274;7.796;2022-12-24T11:43:40;13.70;99.90
7360;DHT22;3720;48.274;7.796;2022-12-24T11:46:34;13.70;99.90
7360;DHT22;3720;48.274;7.796;2022-12-24T11:49:16;13.70;99.90
7360;DHT22;3720;48.274;7.796;2022-12-24T11:52:18;13.70;99.90
7360;DHT22;3720;48.274;7.796;2022-12-24T11:55:15;13.70;99.90
7360;DHT22;3720;48.274;7.796;2022-12-24T11:57:55;13.70;99.90
7360;DHT22;3720;48.274;7.796;2022-12-24T12:00:28;13.80;99.90
7360;DHT22;3720;48.274;7.796;2022-12-24T12:03:02;13.90;99.90
7360;DHT22;3720;48.274;7.796;2022-12-24T12:05:35;13.90;99.90
7360;DHT22;3720;48.274;7.796;2022-12-24T12:08:14;14.00;99.90
7360;DHT22;3720;48.274;7.796;2022-12-24T12:10:50;14.10;99.90
7360;DHT22;3720;48.274;7.796;2022-12-24T12:13:27;14.10;99.90
7360;DHT22;3720;48.274;7.796;2022-12-24T12:16:10;14.10;99.90
7360;DHT22;3720;48.274;7.796;2022-12-24T12:18:50;14.20;99.90
7360;DHT22;3720;48.274;7.796;2022-12-24T12:21:26;14.20;99.90
7360;DHT22;3720;48.274;7.796;2022-12-24T12:24:05;14.30;99.90
7360;DHT22;3720;48.274;7.796;2022-12-24T12:26:40;14.30;99.90
7360;DHT22;3720;48.274;7.796;2022-12-24T12:29:22;14.30;99.90
7360;DHT22;3720;48.274;7.796;2022-12-24T12:31:58;14.30;99.90
7360;DHT22;3720;48.274;7.796;2022-12-24T12:34:38;14.30;99.90
7360;DHT22;3720;48.274;7.796;2022-12-24T12:37:15;14.40;99.90
7360;DHT22;3720;48.274;7.796;2022-12-24T12:39:49;14.40;99.90
7360;DHT22;3720;48.274;7.796;2022-12-24T12:42:25;14.50;99.90
7360;DHT22;3720;48.274;7.796;2022-12-24T12:45:19;14.70;99.90
7360;DHT22;3720;48.274;7.796;2022-12-24T12:48:10;14.70;99.90
7360;DHT22;3720;48.274;7.796;2022-12-24T12:50:50;14.70;99.90
7360;DHT22;3720;48.274;7.796;2022-12-24T12:53:34;14.60;99.90
7360;DHT22;3720;48.274;7.796;2022-12-24T12:56:29;14.50;99.90
7360;DHT22;3720;48.274;7.796;2022-12-24T12:59:03;14.40;99.90
7360;DHT22;3720;48.274;7.796;2022-12-24T13:01:44;14.30;99.90
7360;DHT22;3720;48.274;7.796;2022-12-24T13:07:50;14.00;99.90
7360;DHT22;3720;48.274;7.796;2022-12-24T13:10:52;13.90;99.90
7360;DHT22;3720;48.274;7.796;2022-12-24T13:16:56;13.80;99.90
7360;DHT22;3720;48.274;7.796;2022-12-24T13:19:44;13.70;99.90
7360;DHT22;3720;48.274;7.796;2022-12-24T13:22:21;13.70;99.90
7360;DHT22;3720;48.274;7.796;2022-12-24T13:24:55;13.60;99.90
7360;DHT22;3720;48.274;7.796;2022-12-24T13:27:29;13.60;99.90
7360;DHT22;3720;48.274;7.796;2022-12-24T13:30:08;13.60;99.90
7360;DHT22;3720;48.274;7.796;2022-12-24T13:32:58;13.60;99.90
7360;DHT22;3720;48.274;7.796;2022-12-24T13:35:32;13.50;99.90
7360;DHT22;3720;48.274;7.796;2022-12-24T13:38:38;13.50;99.90
7360;DHT22;3720;48.274;7.796;2022-12-24T13:44:29;13.50;99.90
7360;DHT22;3720;48.274;7.796;2022-12-24T13:47:17;13.50;99.90
7360;DHT22;3720;48.274;7.796;2022-12-24T13:49:52;13.50;99.90
7360;DHT22;3720;48.274;7.796;2022-12-24T13:52:27;13.40;99.90
7360;DHT22;3720;48.274;7.796;2022-12-24T13:55:15;13.40;99.90
7360;DHT22;3720;48.274;7.796;2022-12-24T13:57:54;13.40;99.90
7360;DHT22;3720;48.274;7.796;2022-12-24T14:00:43;13.30;99.90
7360;DHT22;3720;48.274;7.796;2022-12-24T14:03:24;13.30;99.90
7360;DHT22;3720;48.274;7.796;2022-12-24T14:06:00;13.20;99.90
7360;DHT22;3720;48.274;7.796;2022-12-24T14:08:38;13.20;99.90
7360;DHT22;3720;48.274;7.796;2022-12-24T14:11:12;13.20;99.90
7360;DHT22;3720;48.274;7.796;2022-12-24T14:16:48;13.10;99.90
7360;DHT22;3720;48.274;7.796;2022-12-24T14:19:23;13.10;99.90
7360;DHT22;3720;48.274;7.796;2022-12-24T14:22:01;13.10;99.90
7360;DHT22;3720;48.274;7.796;2022-12-24T14:24:34;13.10;99.90
7360;DHT22;3720;48.274;7.796;2022-12-24T14:27:14;13.10;99.90
7360;DHT22;3720;48.274;7.796;2022-12-24T14:29:50;13.00;99.90
7360;DHT22;3720;48.274;7.796;2022-12-24T14:32:33;13.00;99.90
7360;DHT22;3720;48.274;7.796;2022-12-24T14:35:08;13.00;99.90
7360;DHT22;3720;48.274;7.796;2022-12-24T14:37:46;13.10;99.90
7360;DHT22;3720;48.274;7.796;2022-12-24T14:40:21;13.00;99.90
7360;DHT22;3720;48.274;7.796;2022-12-24T14:43:02;12.90;99.90
7360;DHT22;3720;48.274;7.796;2022-12-24T14:45:41;12.90;99.90
7360;DHT22;3720;48.274;7.796;2022-12-24T14:48:21;12.90;99.90
7360;DHT22;3720;48.274;7.796;2022-12-24T14:51:05;12.90;99.90
7360;DHT22;3720;48.274;7.796;2022-12-24T14:53:54;12.80;99.90
7360;DHT22;3720;48.274;7.796;2022-12-24T14:56:28;12.80;99.90
7360;DHT22;3720;48.274;7.796;2022-12-24T14:59:13;12.80;99.90
7360;DHT22;3720;48.274;7.796;2022-12-24T15:01:46;12.70;99.90
7360;DHT22;3720;48.274;7.796;2022-12-24T15:04:19;12.70;99.90
7360;DHT22;3720;48.274;7.796;2022-12-24T15:06:52;12.60;99.90
7360;DHT22;3720;48.274;7.796;2022-12-24T15:09:29;12.70;99.90
7360;DHT22;3720;48.274;7.796;2022-12-24T15:12:03;12.70;99.90
7360;DHT22;3720;48.274;7.796;2022-12-24T15:14:41;12.70;99.90
7360;DHT22;3720;48.274;7.796;2022-12-24T15:17:13;12.60;99.90
7360;DHT22;3720;48.274;7.796;2022-12-24T15:19:50;12.60;99.90
7360;DHT22;3720;48.274;7.796;2022-12-24T15:22:24;12.60;99.90
7360;DHT22;3720;48.274;7.796;2022-12-24T15:24:57;12.60;99.90
7360;DHT22;3720;48.274;7.796;2022-12-24T15:27:31;12.50;99.90
7360;DHT22;3720;48.274;7.796;2022-12-24T15:30:10;12.60;99.90
7360;DHT22;3720;48.274;7.796;2022-12-24T15:32:44;12.60;99.90
7360;DHT22;3720;48.274;7.796;2022-12-24T15:35:51;12.60;99.90
7360;DHT22;3720;48.274;7.796;2022-12-24T15:38:27;12.50;99.90
7360;DHT22;3720;48.274;7.796;2022-12-24T15:41:03;12.50;99.90
7360;DHT22;3720;48.274;7.796;2022-12-24T15:43:39;12.50;99.90
7360;DHT22;3720;48.274;7.796;2022-12-24T15:46:18;12.50;99.90
7360;DHT22;3720;48.274;7.796;2022-12-24T15:48:51;12.50;99.90
7360;DHT22;3720;48.274;7.796;2022-12-24T15:51:29;12.50;99.90
7360;DHT22;3720;48.274;7.796;2022-12-24T15:54:04;12.50;99.90
7360;DHT22;3720;48.274;7.796;2022-12-24T15:56:39;12.50;99.90
7360;DHT22;3720;48.274;7.796;2022-12-24T15:59:24;12.50;99.90
7360;DHT22;3720;48.274;7.796;2022-12-24T16:02:32;12.50;99.90
7360;DHT22;3720;48.274;7.796;2022-12-24T16:05:32;12.50;99.90
7360;DHT22;3720;48.274;7.796;2022-12-24T16:08:22;12.30;99.90
7360;DHT22;3720;48.274;7.796;2022-12-24T16:11:08;12.40;99.90
7360;DHT22;3720;48.274;7.796;2022-12-24T16:13:43;12.40;99.90
7360;DHT22;3720;48.274;7.796;2022-12-24T16:16:31;12.30;99.90
7360;DHT22;3720;48.274;7.796;2022-12-24T16:19:04;12.20;99.90
7360;DHT22;3720;48.274;7.796;2022-12-24T16:21:39;12.10;99.90
7360;DHT22;3720;48.274;7.796;2022-12-24T16:24:16;12.00;99.90
7360;DHT22;3720;48.274;7.796;2022-12-24T16:26:48;12.00;99.90
7360;DHT22;3720;48.274;7.796;2022-12-24T16:29:21;12.00;99.90
7360;DHT22;3720;48.274;7.796;2022-12-24T16:31:54;11.90;99.90
7360;DHT22;3720;48.274;7.796;2022-12-24T16:34:29;11.90;99.90
7360;DHT22;3720;48.274;7.796;2022-12-24T16:37:01;11.90;99.90
7360;DHT22;3720;48.274;7.796;2022-12-24T16:39:35;12.00;99.90
7360;DHT22;3720;48.274;7.796;2022-12-24T16:42:09;12.00;99.90
7360;DHT22;3720;48.274;7.796;2022-12-24T16:44:59;12.20;99.90
7360;DHT22;3720;48.274;7.796;2022-12-24T16:47:33;12.10;99.90
7360;DHT22;3720;48.274;7.796;2022-12-24T16:50:07;12.20;99.90
7360;DHT22;3720;48.274;7.796;2022-12-24T16:52:38;12.20;99.90
7360;DHT22;3720;48.274;7.796;2022-12-24T16:55:13;12.20;99.90
7360;DHT22;3720;48.274;7.796;2022-12-24T16:57:45;12.30;99.90
7360;DHT22;3720;48.274;7.796;2022-12-24T17:00:19;12.20;99.90
7360;DHT22;3720;48.274;7.796;2022-12-24T17:02:52;12.20;99.90
7360;DHT22;3720;48.274;7.796;2022-12-24T17:05:24;12.20;99.90
7360;DHT22;3720;48.274;7.796;2022-12-24T17:07:58;12.20;99.90
7360;DHT22;3720;48.274;7.796;2022-12-24T17:10:32;12.20;99.90
7360;DHT22;3720;48.274;7.796;2022-12-24T17:13:05;12.20;99.90
7360;DHT22;3720;48.274;7.796;2022-12-24T17:15:40;12.20;99.90
7360;DHT22;3720;48.274;7.796;2022-12-24T17:18:12;12.10;99.90